SAS77K ENGM-EKCH
Flight info
| Callsign | SAS77K |
|---|---|
| Flight time | N/A |
| Altitude | 35000 |
| Route | OKSAT L996 KELIN DCT TOPLA L996 ERNOV |
| Aircraft | A320/M-SDE3FGHIRWY/LB1 |
Departure
| Time | 2026-04-30 19:24 |
|---|---|
| Airport | Oslo-Gardermoen International Airport (ENGM) |
Arrival
| Time | N/A |
|---|---|
| Airport | Copenhagen Kastrup Airport (EKCH) |
| Time | Latitude | Longitude | Altitude | Speed | Heading |
|---|---|---|---|---|---|
| 2026-04-30 18:39 | 60.19603 | 11.10172 | 685 ft | 0 kts | 286° |
| 2026-04-30 19:13 | 60.19603 | 11.10173 | 685 ft | 1 kts | 286° |
| 2026-04-30 19:13 | 60.19592 | 11.10248 | 681 ft | 3 kts | 286° |
| 2026-04-30 19:13 | 60.19586 | 11.10287 | 683 ft | 3 kts | 286° |
| 2026-04-30 19:14 | 60.19581 | 11.10327 | 685 ft | 3 kts | 286° |
| 2026-04-30 19:14 | 60.19575 | 11.10367 | 682 ft | 3 kts | 286° |
| 2026-04-30 19:14 | 60.19571 | 11.10398 | 683 ft | 0 kts | 286° |
| 2026-04-30 19:18 | 60.19572 | 11.10395 | 682 ft | 0 kts | 303° |
| 2026-04-30 19:18 | 60.19576 | 11.10396 | 682 ft | 0 kts | 342° |
| 2026-04-30 19:18 | 60.19583 | 11.10403 | 680 ft | 2 kts | 20° |
| 2026-04-30 19:19 | 60.19600 | 11.10437 | 684 ft | 5 kts | 58° |
| 2026-04-30 19:19 | 60.19594 | 11.10530 | 683 ft | 8 kts | 106° |
| 2026-04-30 19:19 | 60.19554 | 11.10808 | 683 ft | 12 kts | 106° |
| 2026-04-30 19:20 | 60.19528 | 11.10988 | 683 ft | 15 kts | 106° |
| 2026-04-30 19:20 | 60.19496 | 11.11214 | 681 ft | 18 kts | 105° |
| 2026-04-30 19:20 | 60.19593 | 11.11381 | 683 ft | 12 kts | 16° |
| 2026-04-30 19:21 | 60.19675 | 11.11429 | 683 ft | 13 kts | 16° |
| 2026-04-30 19:21 | 60.19862 | 11.11536 | 685 ft | 15 kts | 16° |
| 2026-04-30 19:22 | 60.20071 | 11.11658 | 683 ft | 11 kts | 18° |
| 2026-04-30 19:22 | 60.20044 | 11.12046 | 689 ft | 11 kts | 108° |
| 2026-04-30 19:23 | 60.19963 | 11.12158 | 685 ft | 1 kts | 196° |
| 2026-04-30 19:24 | 60.19336 | 11.11795 | 683 ft | 107 kts | 196° |
| 2026-04-30 19:24 | 60.18456 | 11.11284 | 681 ft | 154 kts | 196° |
| 2026-04-30 19:24 | 60.16369 | 11.10058 | 1786 ft | 157 kts | 198° |
| 2026-04-30 19:25 | 60.12653 | 11.09827 | 2653 ft | 226 kts | 146° |
| 2026-04-30 19:26 | 60.10222 | 11.14804 | 3502 ft | 271 kts | 135° |
| 2026-04-30 19:26 | 60.07576 | 11.20459 | 5187 ft | 282 kts | 135° |
| 2026-04-30 19:26 | 60.06236 | 11.23317 | 6018 ft | 287 kts | 134° |
| 2026-04-30 19:27 | 60.03825 | 11.29897 | 7653 ft | 297 kts | 127° |
| 2026-04-30 19:27 | 60.02452 | 11.37597 | 9297 ft | 304 kts | 86° |
| 2026-04-30 19:28 | 60.02948 | 11.41690 | 10116 ft | 305 kts | 62° |
| 2026-04-30 19:28 | 60.05820 | 11.48454 | 10773 ft | 339 kts | 43° |
| 2026-04-30 19:29 | 60.08318 | 11.56629 | 11959 ft | 356 kts | 73° |
| 2026-04-30 19:29 | 60.08696 | 11.61524 | 12632 ft | 361 kts | 89° |
| 2026-04-30 19:30 | 60.06829 | 11.76343 | 14594 ft | 372 kts | 109° |
| 2026-04-30 19:30 | 60.05195 | 11.86257 | 15765 ft | 379 kts | 108° |
| 2026-04-30 19:31 | 60.02894 | 11.95697 | 16908 ft | 384 kts | 132° |
| 2026-04-30 19:31 | 60.00895 | 11.99289 | 17489 ft | 384 kts | 148° |
| 2026-04-30 19:31 | 59.95930 | 12.02653 | 18615 ft | 382 kts | 180° |
| 2026-04-30 19:32 | 59.93255 | 12.02492 | 19141 ft | 383 kts | 186° |
| 2026-04-30 19:32 | 59.90572 | 12.02173 | 19683 ft | 386 kts | 186° |
| 2026-04-30 19:32 | 59.87877 | 12.01853 | 20217 ft | 390 kts | 186° |
| 2026-04-30 19:32 | 59.85171 | 12.01539 | 20754 ft | 393 kts | 186° |
| 2026-04-30 19:33 | 59.82435 | 12.01229 | 21269 ft | 396 kts | 186° |
| 2026-04-30 19:33 | 59.79673 | 12.00921 | 21769 ft | 400 kts | 186° |
| 2026-04-30 19:33 | 59.76866 | 12.00612 | 22262 ft | 403 kts | 186° |
| 2026-04-30 19:33 | 59.74067 | 12.00304 | 22759 ft | 407 kts | 186° |
| 2026-04-30 19:34 | 59.71235 | 11.99990 | 23256 ft | 410 kts | 186° |
| 2026-04-30 19:34 | 59.68360 | 11.99667 | 23758 ft | 414 kts | 186° |
| 2026-04-30 19:34 | 59.62573 | 11.99010 | 24587 ft | 420 kts | 186° |
| 2026-04-30 19:35 | 59.59637 | 11.98676 | 24983 ft | 423 kts | 186° |
| 2026-04-30 19:35 | 59.56670 | 11.98340 | 25378 ft | 426 kts | 186° |
| 2026-04-30 19:35 | 59.53731 | 11.98005 | 25748 ft | 429 kts | 186° |
| 2026-04-30 19:35 | 59.50710 | 11.97663 | 26139 ft | 432 kts | 186° |
| 2026-04-30 19:36 | 59.47697 | 11.97327 | 26514 ft | 435 kts | 185° |
| 2026-04-30 19:36 | 59.44697 | 11.96997 | 26870 ft | 438 kts | 185° |
| 2026-04-30 19:36 | 59.38544 | 11.96331 | 27588 ft | 443 kts | 185° |
| 2026-04-30 19:37 | 59.35474 | 11.96000 | 27934 ft | 446 kts | 185° |
| 2026-04-30 19:37 | 59.32345 | 11.95659 | 28271 ft | 449 kts | 185° |
| 2026-04-30 19:37 | 59.29243 | 11.95323 | 28624 ft | 452 kts | 185° |
| 2026-04-30 19:37 | 59.26092 | 11.94984 | 28952 ft | 454 kts | 185° |
| 2026-04-30 19:38 | 59.22920 | 11.94644 | 29294 ft | 457 kts | 185° |
| 2026-04-30 19:38 | 59.19714 | 11.94296 | 29629 ft | 460 kts | 185° |
| 2026-04-30 19:38 | 59.16545 | 11.93952 | 29956 ft | 463 kts | 185° |
| 2026-04-30 19:38 | 59.13315 | 11.93602 | 30290 ft | 465 kts | 185° |
| 2026-04-30 19:39 | 59.10062 | 11.93248 | 30579 ft | 468 kts | 185° |
| 2026-04-30 19:39 | 59.06823 | 11.92899 | 30867 ft | 470 kts | 185° |
| 2026-04-30 19:39 | 59.03560 | 11.92552 | 31268 ft | 469 kts | 185° |
| 2026-04-30 19:39 | 59.00273 | 11.92205 | 31711 ft | 467 kts | 184° |
| 2026-04-30 19:40 | 58.97065 | 11.91865 | 32146 ft | 466 kts | 184° |
| 2026-04-30 19:40 | 58.93813 | 11.91512 | 32586 ft | 465 kts | 185° |
| 2026-04-30 19:40 | 58.90619 | 11.91159 | 33021 ft | 463 kts | 184° |
| 2026-04-30 19:40 | 58.87394 | 11.90801 | 33457 ft | 462 kts | 184° |
| 2026-04-30 19:41 | 58.84184 | 11.90450 | 33894 ft | 461 kts | 184° |
| 2026-04-30 19:41 | 58.80977 | 11.90318 | 34339 ft | 460 kts | 177° |
| 2026-04-30 19:41 | 58.77825 | 11.90999 | 34702 ft | 459 kts | 172° |
| 2026-04-30 19:41 | 58.74657 | 11.91882 | 35060 ft | 458 kts | 172° |
| 2026-04-30 19:42 | 58.71486 | 11.92764 | 35311 ft | 458 kts | 172° |
| 2026-04-30 19:42 | 58.68351 | 11.93632 | 35375 ft | 458 kts | 172° |
| 2026-04-30 19:42 | 58.62053 | 11.95335 | 35380 ft | 458 kts | 172° |
| 2026-04-30 19:43 | 58.55728 | 11.97035 | 35383 ft | 458 kts | 172° |
| 2026-04-30 19:44 | 58.46261 | 11.99564 | 35395 ft | 458 kts | 172° |
| 2026-04-30 19:44 | 58.39952 | 12.01253 | 35401 ft | 458 kts | 172° |
| 2026-04-30 19:45 | 58.33624 | 12.02963 | 35409 ft | 459 kts | 172° |
| 2026-04-30 19:45 | 58.27332 | 12.04636 | 35410 ft | 459 kts | 172° |
| 2026-04-30 19:46 | 58.20964 | 12.06308 | 35413 ft | 459 kts | 172° |
| 2026-04-30 19:46 | 58.14664 | 12.07972 | 35408 ft | 458 kts | 172° |
| 2026-04-30 19:47 | 58.08371 | 12.09639 | 35408 ft | 458 kts | 172° |
| 2026-04-30 19:47 | 58.02038 | 12.11301 | 35416 ft | 458 kts | 172° |
| 2026-04-30 19:48 | 57.95717 | 12.12946 | 35417 ft | 458 kts | 172° |
| 2026-04-30 19:48 | 57.89420 | 12.14586 | 35423 ft | 458 kts | 172° |
| 2026-04-30 19:49 | 57.83077 | 12.16248 | 35421 ft | 458 kts | 172° |
| 2026-04-30 19:49 | 57.73613 | 12.18680 | 35424 ft | 458 kts | 172° |
| 2026-04-30 19:50 | 57.67313 | 12.20297 | 35428 ft | 458 kts | 172° |
| 2026-04-30 19:50 | 57.64157 | 12.21105 | 35308 ft | 458 kts | 172° |
| 2026-04-30 19:50 | 57.61036 | 12.21900 | 34882 ft | 455 kts | 172° |
| 2026-04-30 19:51 | 57.57897 | 12.22698 | 34373 ft | 454 kts | 172° |
| 2026-04-30 19:51 | 57.54765 | 12.23491 | 33829 ft | 451 kts | 172° |
| 2026-04-30 19:51 | 57.51659 | 12.24284 | 33338 ft | 448 kts | 172° |
| 2026-04-30 19:51 | 57.48618 | 12.25061 | 32832 ft | 445 kts | 171° |
| 2026-04-30 19:52 | 57.45546 | 12.25844 | 32326 ft | 443 kts | 171° |
| 2026-04-30 19:52 | 57.42488 | 12.26622 | 31826 ft | 440 kts | 171° |
| 2026-04-30 19:52 | 57.39496 | 12.27381 | 31339 ft | 439 kts | 171° |
| 2026-04-30 19:52 | 57.36471 | 12.28145 | 30851 ft | 437 kts | 171° |
| 2026-04-30 19:53 | 57.33450 | 12.28906 | 30337 ft | 435 kts | 171° |
| 2026-04-30 19:53 | 57.30454 | 12.29656 | 29835 ft | 432 kts | 171° |
| 2026-04-30 19:53 | 57.27516 | 12.30390 | 29372 ft | 429 kts | 171° |
| 2026-04-30 19:53 | 57.24568 | 12.31128 | 28917 ft | 426 kts | 171° |
| 2026-04-30 19:54 | 57.21632 | 12.31863 | 28460 ft | 423 kts | 171° |
| 2026-04-30 19:54 | 57.18721 | 12.32591 | 28027 ft | 420 kts | 171° |
| 2026-04-30 19:54 | 57.15855 | 12.33310 | 27599 ft | 418 kts | 171° |
| 2026-04-30 19:54 | 57.12943 | 12.34041 | 27175 ft | 416 kts | 171° |
| 2026-04-30 19:55 | 57.10112 | 12.34750 | 26784 ft | 413 kts | 171° |
| 2026-04-30 19:55 | 57.07260 | 12.35464 | 26387 ft | 411 kts | 171° |
| 2026-04-30 19:55 | 57.04421 | 12.36174 | 25970 ft | 410 kts | 171° |
| 2026-04-30 19:55 | 57.01622 | 12.36871 | 25561 ft | 409 kts | 171° |
| 2026-04-30 19:56 | 56.98790 | 12.37578 | 25138 ft | 408 kts | 171° |
| 2026-04-30 19:56 | 56.95995 | 12.38271 | 24709 ft | 408 kts | 171° |
| 2026-04-30 19:56 | 56.93189 | 12.38961 | 24287 ft | 407 kts | 171° |
| 2026-04-30 19:56 | 56.90358 | 12.39653 | 23792 ft | 407 kts | 171° |
| 2026-04-30 19:57 | 56.88495 | 12.40108 | 23480 ft | 405 kts | 171° |
| 2026-04-30 19:57 | 56.84800 | 12.41014 | 22882 ft | 402 kts | 171° |
| 2026-04-30 19:57 | 56.82961 | 12.41466 | 22586 ft | 400 kts | 171° |
| 2026-04-30 19:57 | 56.80195 | 12.42145 | 22136 ft | 398 kts | 171° |
| 2026-04-30 19:58 | 56.77452 | 12.42818 | 21689 ft | 395 kts | 171° |
| 2026-04-30 19:58 | 56.74737 | 12.43485 | 21230 ft | 393 kts | 171° |
| 2026-04-30 19:58 | 56.72062 | 12.44136 | 20796 ft | 390 kts | 171° |
| 2026-04-30 19:58 | 56.69377 | 12.44789 | 20349 ft | 387 kts | 171° |
| 2026-04-30 19:59 | 56.66716 | 12.45435 | 19910 ft | 384 kts | 171° |
| 2026-04-30 19:59 | 56.64069 | 12.46077 | 19467 ft | 382 kts | 171° |
| 2026-04-30 19:59 | 56.58852 | 12.47336 | 18586 ft | 378 kts | 171° |
| 2026-04-30 20:00 | 56.56253 | 12.47962 | 18111 ft | 375 kts | 171° |